Time;durP1;ratioP1;P1;durP2;ratioP2;P2;SDS_P1;SDS_P2;PMS_P1;PMS_P2;Temp;Humidity;BMP_temperature;BMP_pressure;BME280_temperature;BME280_humidity;BME280_pressure;Samples;Min_cycle;Max_cycle;Signal;HPM_P1;HPM_P2
2022/05/24 00:04:47;;;;;;;25.05;8.68;;;;;;;12.96;100.00;99853.91;10493547;28;20044;-76
2022/05/24 00:09:48;;;;;;;13.63;8.02;;;;;;;13.00;100.00;99852.22;10499827;28;20036;-75
2022/05/24 00:20:07;;;;;;;13.38;7.20;;;;;;;12.85;100.00;99852.38;10498988;28;20032;-75
2022/05/24 00:25:08;;;;;;;16.27;7.97;;;;;;;12.83;100.00;99868.41;10497153;28;20049;-75
2022/05/24 00:30:09;;;;;;;18.65;9.27;;;;;;;12.75;100.00;99860.78;10456446;28;20042;-76
2022/05/24 00:35:10;;;;;;;20.45;11.05;;;;;;;12.88;100.00;99879.44;10458210;28;20120;-76
2022/05/24 00:40:15;;;;;;;22.15;12.25;;;;;;;12.84;100.00;99875.59;10456542;28;20033;-75
2022/05/24 00:45:34;;;;;;;21.50;12.98;;;;;;;12.81;100.00;99873.41;10440873;28;20072;-77
2022/05/24 00:50:40;;;;;;;25.27;14.55;;;;;;;12.63;100.00;99877.75;10456583;28;20041;-74
2022/05/24 00:55:44;;;;;;;25.88;15.00;;;;;;;12.46;100.00;99889.25;10455079;28;20043;-75
2022/05/24 01:00:45;;;;;;;23.30;15.02;;;;;;;12.37;100.00;99891.81;10451664;28;20066;-75
2022/05/24 01:05:45;;;;;;;24.08;15.65;;;;;;;12.29;100.00;99890.50;10496140;28;20074;-77
2022/05/24 01:10:49;;;;;;;19.77;15.23;;;;;;;12.16;100.00;99885.66;10497246;28;20032;-76
2022/05/24 01:15:51;;;;;;;17.85;13.32;;;;;;;11.94;100.00;99874.25;10480317;28;20484;-76
2022/05/24 01:20:54;;;;;;;23.55;13.05;;;;;;;11.89;100.00;99886.16;10479677;28;20059;-75
2022/05/24 01:25:56;;;;;;;21.30;13.80;;;;;;;11.81;100.00;99895.81;10480322;28;20044;-76
2022/05/24 01:30:58;;;;;;;21.25;13.93;;;;;;;11.76;100.00;99898.63;10454849;28;20037;-76
2022/05/24 01:36:10;;;;;;;26.70;16.55;;;;;;;11.67;100.00;99903.09;10448561;28;20033;-75
2022/05/24 01:41:22;;;;;;;23.77;15.43;;;;;;;11.62;100.00;99897.63;10455225;28;20037;-75
2022/05/24 01:46:26;;;;;;;25.17;14.50;;;;;;;11.54;100.00;99890.78;10438831;28;20044;-75
2022/05/24 01:51:34;;;;;;;23.10;14.65;;;;;;;11.49;100.00;99891.63;10454937;28;20037;-75
2022/05/24 01:57:06;;;;;;;29.13;15.35;;;;;;;11.45;100.00;99876.78;10438114;28;20044;-76
2022/05/24 02:02:06;;;;;;;23.77;16.73;;;;;;;11.48;100.00;99870.69;10454644;28;20041;-76
2022/05/24 02:07:09;;;;;;;28.40;18.13;;;;;;;11.49;100.00;99872.34;10437637;28;20041;-76
2022/05/24 02:12:11;;;;;;;28.83;17.80;;;;;;;11.54;100.00;99852.19;10452335;28;20037;-76
2022/05/24 02:17:45;;;;;;;24.70;16.33;;;;;;;11.70;100.00;99884.06;10438093;28;20029;-75
2022/05/24 02:22:46;;;;;;;26.08;17.20;;;;;;;11.76;100.00;99881.25;10436958;28;20382;-75
2022/05/24 02:27:47;;;;;;;22.48;14.63;;;;;;;11.58;100.00;99855.19;10443670;28;20060;-76
2022/05/24 02:32:47;;;;;;;22.73;14.35;;;;;;;11.60;100.00;99869.53;10495860;28;20124;-77
2022/05/24 02:37:48;;;;;;;19.88;13.65;;;;;;;11.69;100.00;99881.56;10501293;28;20110;-76
2022/05/24 02:42:48;;;;;;;26.13;14.93;;;;;;;11.70;100.00;99889.56;10502880;28;20033;-76
2022/05/24 02:47:49;;;;;;;21.92;14.90;;;;;;;11.83;100.00;99877.06;10501989;28;20052;-76
2022/05/24 02:52:49;;;;;;;24.65;14.35;;;;;;;11.89;100.00;99892.50;10501974;28;20033;-77
2022/05/24 02:57:50;;;;;;;22.50;16.23;;;;;;;11.95;100.00;99882.25;10478763;28;20116;-76
2022/05/24 03:02:50;;;;;;;23.75;16.70;;;;;;;12.00;100.00;99884.97;10461886;28;20037;-76
2022/05/24 03:18:29;;;;;;;27.73;18.67;;;;;;;12.13;100.00;99911.06;10459943;28;20052;-75
2022/05/24 03:23:30;;;;;;;34.42;20.40;;;;;;;12.21;100.00;99898.59;10461869;28;20048;-75
2022/05/24 03:28:30;;;;;;;38.88;23.02;;;;;;;12.24;100.00;99909.88;10458599;28;20049;-76
2022/05/24 03:33:31;;;;;;;41.03;25.77;;;;;;;12.32;100.00;99911.19;10442210;28;20033;-75
2022/05/24 03:38:31;;;;;;;39.92;24.45;;;;;;;12.35;100.00;99907.03;10426818;28;20549;-76
2022/05/24 03:43:32;;;;;;;45.17;25.05;;;;;;;12.38;100.00;99906.44;10458094;28;20060;-76
2022/05/24 03:48:33;;;;;;;44.00;26.10;;;;;;;12.39;100.00;99902.56;10458957;28;20037;-76
2022/05/24 03:53:33;;;;;;;52.13;29.33;;;;;;;12.45;100.00;99909.69;10447600;28;20099;-75
2022/05/24 03:58:34;;;;;;;54.45;28.02;;;;;;;12.44;100.00;99894.22;10501170;28;20036;-73
2022/05/24 04:03:35;;;;;;;53.10;30.17;;;;;;;12.57;100.00;99923.94;10499997;28;20057;-73
2022/05/24 04:08:36;;;;;;;54.40;32.33;;;;;;;12.66;100.00;99921.34;10469844;28;20118;-76
2022/05/24 04:13:37;;;;;;;61.28;34.17;;;;;;;12.73;100.00;99927.34;10458674;28;20037;-76
2022/05/24 04:18:37;;;;;;;54.55;33.00;;;;;;;12.77;100.00;99916.56;10457533;28;20037;-75
2022/05/24 04:23:38;;;;;;;57.08;33.25;;;;;;;12.84;100.00;99922.56;10457740;28;20052;-75
2022/05/24 04:28:38;;;;;;;52.90;33.50;;;;;;;12.84;100.00;99926.16;10456745;28;20040;-74
2022/05/24 04:33:39;;;;;;;55.88;32.60;;;;;;;12.96;100.00;99931.28;10460556;28;20081;-71
2022/05/24 04:38:39;;;;;;;50.60;31.65;;;;;;;13.04;100.00;99938.06;10495991;28;20032;-72
2022/05/24 04:43:40;;;;;;;53.63;33.13;;;;;;;13.12;100.00;99927.22;10499136;28;20044;-73
2022/05/24 04:48:40;;;;;;;47.80;30.13;;;;;;;13.12;100.00;99935.50;10514902;28;20768;-72
2022/05/24 04:53:41;;;;;;;46.70;30.60;;;;;;;13.15;100.00;99936.84;10498269;28;20036;-73
2022/05/24 04:58:41;;;;;;;43.42;29.55;;;;;;;13.24;100.00;99935.06;10498514;28;20036;-69
2022/05/24 05:03:42;;;;;;;47.40;29.13;;;;;;;13.35;100.00;99935.78;10515092;28;20048;-72
2022/05/24 05:08:42;;;;;;;43.38;26.98;;;;;;;13.44;100.00;99945.09;10457996;28;20037;-72
2022/05/24 05:13:43;;;;;;;33.90;24.90;;;;;;;13.50;100.00;99945.84;10457399;28;20463;-74
2022/05/24 05:18:43;;;;;;;34.10;23.85;;;;;;;13.56;100.00;99957.66;10457830;28;20489;-72
2022/05/24 05:23:44;;;;;;;36.20;24.38;;;;;;;13.67;100.00;99967.47;10457792;28;20037;-73
2022/05/24 05:28:44;;;;;;;37.25;22.70;;;;;;;13.76;100.00;99975.94;10455587;28;20036;-74
2022/05/24 05:33:47;;;;;;;33.40;21.88;;;;;;;13.77;100.00;99972.88;10468045;28;20041;-73
2022/05/24 05:38:48;;;;;;;35.38;22.80;;;;;;;13.64;100.00;99973.59;10496222;28;20040;-75
2022/05/24 05:43:48;;;;;;;27.52;21.35;;;;;;;13.57;100.00;99978.66;10495847;28;20057;-74
2022/05/24 05:48:49;;;;;;;34.92;22.38;;;;;;;13.56;100.00;99983.38;10498898;28;20512;-75
2022/05/24 05:53:49;;;;;;;32.72;21.60;;;;;;;13.57;100.00;99986.97;10480278;28;20064;-74
2022/05/24 05:58:50;;;;;;;32.90;22.83;;;;;;;13.51;100.00;100002.78;10497565;28;20033;-76
2022/05/24 06:03:50;;;;;;;36.53;25.52;;;;;;;13.59;100.00;99999.38;10479173;28;20037;-71
2022/05/24 06:08:51;;;;;;;39.60;26.55;;;;;;;13.62;100.00;99981.34;10458741;28;20041;-71
2022/05/24 06:13:51;;;;;;;39.47;25.73;;;;;;;13.77;100.00;99992.22;10461987;28;20037;-72
2022/05/24 06:18:52;;;;;;;37.55;24.83;;;;;;;13.90;100.00;99997.03;10462980;28;20033;-73
2022/05/24 06:23:52;;;;;;;39.17;25.30;;;;;;;13.89;100.00;100003.69;10463877;28;20025;-73
2022/05/24 06:28:52;;;;;;;35.13;25.77;;;;;;;13.92;100.00;99986.47;10463376;28;20040;-73
2022/05/24 06:33:53;;;;;;;34.63;22.23;;;;;;;13.97;100.00;99993.88;10495203;28;20040;-73
2022/05/24 06:38:53;;;;;;;34.67;21.63;;;;;;;14.23;100.00;100023.97;10498829;28;20083;-72
2022/05/24 06:43:54;;;;;;;27.75;18.95;;;;;;;14.43;100.00;100022.84;10460633;28;20059;-73
2022/05/24 06:48:54;;;;;;;30.65;18.10;;;;;;;14.23;100.00;100046.13;10463418;28;20048;-73
2022/05/24 06:53:55;;;;;;;24.80;17.08;;;;;;;13.97;100.00;100048.41;10463102;28;20040;-77
2022/05/24 07:04:14;;;;;;;24.90;17.23;;;;;;;13.79;100.00;100059.16;10458672;28;20044;-75
2022/05/24 07:09:15;;;;;;;25.23;16.73;;;;;;;13.75;100.00;100047.03;10500541;28;20046;-77
2022/05/24 07:14:15;;;;;;;29.80;15.85;;;;;;;13.65;100.00;100061.00;10502593;28;20048;-76
2022/05/24 07:19:16;;;;;;;24.27;14.77;;;;;;;13.53;100.00;100051.16;10499495;28;20043;-75
2022/05/24 07:24:17;;;;;;;27.52;15.48;;;;;;;13.45;100.00;100067.56;10500853;28;20036;-75
2022/05/24 07:29:18;;;;;;;24.95;16.45;;;;;;;13.56;100.00;100109.75;10483452;28;20060;-77
2022/05/24 07:34:19;;;;;;;24.70;15.88;;;;;;;13.49;100.00;100088.78;10500205;28;20112;-76
2022/05/24 07:39:19;;;;;;;25.83;14.88;;;;;;;13.64;100.00;100109.09;10481393;28;20032;-75
2022/05/24 07:49:39;;;;;;;20.90;13.75;;;;;;;13.91;100.00;100108.50;10500004;28;20075;-78
2022/05/24 07:54:39;;;;;;;20.50;13.88;;;;;;;14.31;100.00;100109.94;10500502;28;20311;-76
2022/05/24 07:59:43;;;;;;;19.77;13.85;;;;;;;14.42;100.00;100115.34;10496013;28;20033;-72
2022/05/24 08:04:44;;;;;;;20.33;13.85;;;;;;;14.28;100.00;100116.09;10493642;28;20043;-75
2022/05/24 08:09:44;;;;;;;21.23;12.13;;;;;;;14.39;100.00;100118.72;10486155;28;20044;-76
2022/05/24 08:14:45;;;;;;;22.80;11.40;;;;;;;14.54;100.00;100124.03;10499642;28;20048;-75
2022/05/24 08:19:45;;;;;;;14.60;11.60;;;;;;;14.34;100.00;100136.19;10499599;28;20401;-78
2022/05/24 08:24:46;;;;;;;20.98;13.15;;;;;;;14.25;100.00;100144.34;10499615;28;20039;-76
2022/05/24 08:29:46;;;;;;;21.23;13.38;;;;;;;14.31;100.00;100136.81;10497355;28;20036;-76
2022/05/24 08:34:48;;;;;;;17.85;12.10;;;;;;;14.30;100.00;100151.75;10494578;28;20036;-76
2022/05/24 08:39:48;;;;;;;19.45;10.98;;;;;;;14.50;100.00;100136.81;10494261;28;20033;-75
2022/05/24 08:50:37;;;;;;;17.63;10.90;;;;;;;15.67;100.00;100144.38;10484712;28;20053;-76
2022/05/24 08:55:38;;;;;;;15.38;10.65;;;;;;;15.71;100.00;100151.78;10456215;28;20038;-76
2022/05/24 09:00:39;;;;;;;20.38;11.13;;;;;;;15.22;100.00;100149.63;10465612;28;20392;-76
2022/05/24 09:05:57;;;;;;;15.02;10.73;;;;;;;15.53;100.00;100167.34;10471218;28;20444;-72
2022/05/24 09:11:25;;;;;;;15.13;8.65;;;;;;;15.77;100.00;100166.38;10459958;28;20044;-75
2022/05/24 09:16:51;;;;;;;13.88;8.75;;;;;;;15.88;100.00;100151.19;10490535;28;20044;-73
2022/05/24 09:21:53;;;;;;;19.60;7.93;;;;;;;16.33;100.00;100150.59;10463259;28;20059;-78
2022/05/24 09:27:09;;;;;;;10.40;7.72;;;;;;;16.73;100.00;100164.69;10496178;28;20041;-72
2022/05/24 09:32:10;;;;;;;13.80;7.22;;;;;;;16.81;100.00;100150.09;10494404;28;20037;-70
2022/05/24 09:37:22;;;;;;;10.85;6.53;;;;;;;16.86;100.00;100151.91;10494459;28;20507;-76
2022/05/24 09:42:28;;;;;;;10.80;5.88;;;;;;;17.13;100.00;100157.34;10480029;28;20045;-74
2022/05/24 09:48:01;;;;;;;11.70;4.88;;;;;;;17.29;100.00;100116.06;10470030;28;20051;-73
2022/05/24 09:53:14;;;;;;;7.22;4.35;;;;;;;17.49;100.00;100164.81;10497818;28;20040;-78
2022/05/24 09:58:16;;;;;;;8.10;5.07;;;;;;;16.62;100.00;100186.34;10502202;28;20033;-76
2022/05/24 10:03:20;;;;;;;10.00;5.03;;;;;;;16.06;100.00;100206.94;10507438;28;20059;-78
2022/05/24 10:08:21;;;;;;;7.80;4.18;;;;;;;16.89;100.00;100202.16;10488653;28;20407;-76
2022/05/24 10:13:59;;;;;;;9.85;3.90;;;;;;;17.32;100.00;100192.50;10507796;28;20055;-74
2022/05/24 10:19:37;;;;;;;4.80;2.95;;;;;;;16.55;100.00;100231.19;10510952;28;20146;-78
2022/05/24 10:25:12;;;;;;;2.40;0.77;;;;;;;14.68;100.00;100240.50;10508552;28;20283;-78
2022/05/24 10:30:31;;;;;;;10.48;1.60;;;;;;;14.18;100.00;100264.88;10420041;28;20048;-77
2022/05/24 10:41:21;;;;;;;7.32;2.42;;;;;;;15.49;100.00;100266.19;10499619;27;20070;-75
2022/05/24 10:46:36;;;;;;;4.85;2.42;;;;;;;16.89;100.00;100254.97;10482115;27;20487;-80
2022/05/24 10:51:53;;;;;;;5.78;2.88;;;;;;;17.42;100.00;100256.25;10499534;28;20154;-76
2022/05/24 10:56:55;;;;;;;7.00;3.17;;;;;;;16.92;100.00;100251.56;10491122;28;20044;-77
2022/05/24 11:02:00;;;;;;;6.25;3.03;;;;;;;16.03;100.00;100283.34;10461168;28;20123;-78
2022/05/24 11:07:06;;;;;;;5.47;2.00;;;;;;;14.99;100.00;100328.78;10478244;28;20106;-77
2022/05/24 11:12:12;;;;;;;2.63;0.40;;;;;;;13.92;100.00;100335.13;10481616;28;20097;-79
2022/05/24 11:17:12;;;;;;;1.25;0.40;;;;;;;12.66;100.00;100357.69;10503261;28;20032;-77
2022/05/24 11:22:16;;;;;;;1.10;0.40;;;;;;;12.25;100.00;100364.13;10480541;28;20147;-74
2022/05/24 11:27:17;;;;;;;1.08;0.50;;;;;;;12.21;100.00;100357.50;10499890;28;20037;-73
2022/05/24 11:32:33;;;;;;;1.63;0.73;;;;;;;12.60;100.00;100351.34;10501963;28;20029;-72
2022/05/24 11:37:39;;;;;;;2.42;0.65;;;;;;;13.09;100.00;100371.91;10494803;28;20512;-72
2022/05/24 11:42:39;;;;;;;2.10;0.87;;;;;;;13.50;100.00;100378.06;10481793;28;20109;-72
2022/05/24 11:47:46;;;;;;;1.40;0.80;;;;;;;14.20;100.00;100368.69;10500981;28;20066;-74
2022/05/24 11:53:03;;;;;;;2.85;1.10;;;;;;;14.19;100.00;100386.38;10499105;28;20033;-76
2022/05/24 11:58:18;;;;;;;;;;;;;;;14.87;100.00;100390.16;10500794;28;20032;-75
2022/05/24 12:08:40;;;;;;;3.85;1.40;;;;;;;16.56;100.00;100393.22;10476129;28;20078;-76
2022/05/24 12:13:48;;;;;;;3.22;1.45;;;;;;;16.00;100.00;100396.94;10461374;28;20525;-76
2022/05/24 12:18:59;;;;;;;3.40;1.45;;;;;;;16.03;100.00;100413.03;10459149;28;20128;-76
2022/05/24 12:24:22;;;;;;;4.75;1.50;;;;;;;15.94;100.00;100405.38;10441411;28;20033;-77
2022/05/24 12:29:23;;;;;;;4.35;1.48;;;;;;;16.24;100.00;100389.31;10458116;28;20052;-77
2022/05/24 12:34:23;;;;;;;2.58;1.23;;;;;;;16.97;100.00;100392.47;10457306;28;20044;-77
2022/05/24 12:39:25;;;;;;;3.97;1.30;;;;;;;16.26;100.00;100405.69;10491821;28;20043;-74
2022/05/24 12:44:25;;;;;;;2.88;1.40;;;;;;;15.20;100.00;100423.59;10465023;28;20052;-76
2022/05/24 12:49:27;;;;;;;3.80;1.83;;;;;;;14.97;100.00;100439.94;10462529;28;20049;-74
2022/05/24 12:54:35;;;;;;;2.92;1.30;;;;;;;16.41;100.00;100426.81;10495887;28;20040;-76
2022/05/24 12:59:40;;;;;;;4.20;1.25;;;;;;;17.59;100.00;100421.75;10472462;28;20041;-73
2022/05/24 13:04:40;;;;;;;2.17;1.13;;;;;;;17.11;100.00;100387.69;10460321;28;20053;-72
2022/05/24 13:09:44;;;;;;;2.15;0.63;;;;;;;17.80;100.00;100434.06;10495272;28;20064;-76
2022/05/24 13:14:56;;;;;;;2.63;1.00;;;;;;;16.49;100.00;100481.69;10498192;28;20041;-77
2022/05/24 13:20:01;;;;;;;2.90;0.40;;;;;;;14.38;100.00;100488.13;10478955;28;20029;-75
2022/05/24 13:25:01;;;;;;;2.65;0.22;;;;;;;13.59;100.00;100510.22;10480990;28;20032;-75
2022/05/24 13:35:21;;;;;;;1.50;0.40;;;;;;;17.00;100.00;100450.22;10459058;28;20037;-76
2022/05/24 13:40:39;;;;;;;1.80;0.68;;;;;;;18.31;100.00;100474.69;10454510;28;20037;-77
2022/05/24 13:45:39;;;;;;;4.57;0.95;;;;;;;17.69;100.00;100497.53;10454601;28;20071;-77
2022/05/24 13:50:44;;;;;;;2.50;0.60;;;;;;;18.51;100.00;100504.00;10457403;28;20079;-79
2022/05/24 13:56:00;;;;;;;2.67;0.60;;;;;;;18.57;100.00;100506.66;10455069;28;20408;-75
2022/05/24 14:01:09;;;;;;;6.60;0.63;;;;;;;16.88;100.00;100498.00;10445815;28;20040;-73
2022/05/24 14:06:25;;;;;;;5.07;1.67;;;;;;;15.70;100.00;100512.84;10475606;28;20054;-75
2022/05/24 14:11:29;;;;;;;2.63;0.70;;;;;;;15.13;100.00;100519.06;10494056;28;20071;-80
2022/05/24 14:16:30;;;;;;;1.98;0.80;;;;;;;15.09;100.00;100531.84;10456286;28;20055;-77
2022/05/24 14:21:33;;;;;;;23.35;15.32;;;;;;;15.00;100.00;100536.38;10461429;28;20044;-77
2022/05/24 14:26:34;;;;;;;3.30;1.70;;;;;;;14.72;100.00;100547.16;10493948;28;20558;-76
2022/05/24 14:31:35;;;;;;;6.22;1.83;;;;;;;14.15;100.00;100592.94;10501847;28;20454;-76
2022/05/24 14:36:35;;;;;;;4.22;1.23;;;;;;;13.58;100.00;100592.38;10479109;28;20094;-78
2022/05/24 14:41:36;;;;;;;6.78;2.10;;;;;;;13.39;100.00;100588.53;10500998;28;20045;-75
2022/05/24 14:46:38;;;;;;;4.40;2.63;;;;;;;13.48;100.00;100595.16;10501163;28;20047;-75
2022/05/24 14:51:43;;;;;;;6.45;3.10;;;;;;;13.89;100.00;100600.53;10476532;28;20052;-76
2022/05/24 14:56:44;;;;;;;8.50;3.20;;;;;;;14.15;100.00;100592.94;10505192;28;20058;-74
2022/05/24 15:01:45;;;;;;;5.80;3.03;;;;;;;16.14;100.00;100583.91;10484083;28;20040;-76
2022/05/24 15:06:46;;;;;;;5.10;2.88;;;;;;;16.18;100.00;100584.94;10475702;28;20112;-76
2022/05/24 15:17:06;;;;;;;6.57;3.22;;;;;;;16.74;100.00;100595.25;10503701;28;20090;-76
2022/05/24 15:22:07;;;;;;;8.60;3.63;;;;;;;16.15;100.00;100602.22;10500919;28;20493;-76
2022/05/24 15:27:08;;;;;;;7.85;4.43;;;;;;;16.09;100.00;100617.31;10484579;28;20032;-78
2022/05/24 15:32:09;;;;;;;7.80;3.90;;;;;;;18.17;100.00;100604.84;10501556;28;20055;-80
2022/05/24 15:37:09;;;;;;;5.65;2.92;;;;;;;19.42;100.00;100613.53;10452742;28;20044;-81
2022/05/24 15:42:10;;;;;;;2.88;1.90;;;;;;;19.63;100.00;100616.59;10458198;28;20033;-80
2022/05/24 15:47:11;;;;;;;5.50;2.88;;;;;;;19.74;93.30;100606.84;10460312;28;20049;-81
2022/05/24 15:52:12;;;;;;;4.63;2.42;;;;;;;20.00;92.32;100633.22;10488358;28;20044;-82
2022/05/24 15:57:12;;;;;;;4.20;2.03;;;;;;;19.15;93.70;100632.09;10500167;28;20070;-82
2022/05/24 16:02:13;;;;;;;3.08;1.95;;;;;;;20.47;86.00;100611.13;10494021;28;20493;-83
2022/05/24 16:12:42;;;;;;;5.40;2.10;;;;;;;19.81;81.72;100620.31;10495993;28;20053;-84
2022/05/24 16:17:43;;;;;;;4.30;1.58;;;;;;;18.16;86.49;100650.56;10457487;28;20033;-82
2022/05/24 16:22:44;;;;;;;4.47;2.58;;;;;;;18.73;89.63;100647.34;10441321;28;20040;-81
2022/05/24 16:27:44;;;;;;;4.85;2.67;;;;;;;18.67;93.15;100668.94;10457828;28;20033;-88
2022/05/24 16:32:45;;;;;;;5.43;2.03;;;;;;;19.07;87.88;100671.13;10458435;28;20033;-72
2022/05/24 16:37:46;;;;;;;4.63;1.90;;;;;;;19.49;83.64;100669.78;10484911;28;20044;-82
2022/05/24 16:42:47;;;;;;;3.65;1.77;;;;;;;18.19;84.20;100679.75;10495307;28;20048;-80
2022/05/24 16:47:47;;;;;;;3.15;1.73;;;;;;;17.54;90.81;100693.47;10488041;28;20036;-81
2022/05/24 16:52:48;;;;;;;4.78;1.70;;;;;;;17.72;89.95;100696.53;10457156;28;20052;-80
2022/05/24 17:03:07;;;;;;;4.13;1.95;;;;;;;17.68;90.00;100706.63;10457088;28;20048;-81
2022/05/24 17:08:09;;;;;;;5.82;1.70;;;;;;;16.62;92.71;100707.97;10457776;28;20037;-78
2022/05/24 17:13:10;;;;;;;4.75;1.80;;;;;;;15.98;97.83;100718.50;10473458;28;20036;-83
2022/05/24 17:18:10;;;;;;;3.47;1.90;;;;;;;15.42;100.00;100734.56;10454601;28;20048;-83
2022/05/24 17:23:11;;;;;;;5.10;1.83;;;;;;;15.08;100.00;100740.91;10456079;28;20029;-83
2022/05/24 17:28:12;;;;;;;4.15;2.30;;;;;;;14.85;100.00;100744.38;10467669;28;20041;-83
2022/05/24 17:33:23;;;;;;;3.92;2.30;;;;;;;14.89;100.00;100735.22;10456183;28;20029;-81
2022/05/24 17:38:24;;;;;;;6.13;2.95;;;;;;;15.07;100.00;100750.34;10439274;28;20102;-83
2022/05/24 17:43:25;;;;;;;2.95;1.75;;;;;;;14.97;100.00;100752.38;10455870;28;20060;-78
2022/05/24 17:48:26;;;;;;;6.75;2.25;;;;;;;14.91;100.00;100754.34;10454015;28;20116;-82
2022/05/24 17:53:26;;;;;;;4.38;2.97;;;;;;;14.82;100.00;100756.03;10455138;28;20045;-81
2022/05/24 17:58:27;;;;;;;4.00;2.28;;;;;;;14.83;100.00;100766.03;10455956;28;20040;-81
2022/05/24 18:03:28;;;;;;;3.80;1.80;;;;;;;14.78;100.00;100760.50;10461291;28;20039;-80
2022/05/24 18:08:29;;;;;;;2.95;1.80;;;;;;;14.67;100.00;100759.72;10500078;28;20123;-80
2022/05/24 18:13:29;;;;;;;4.65;2.15;;;;;;;14.58;100.00;100773.34;10503474;28;20408;-84
2022/05/24 18:18:30;;;;;;;4.05;1.73;;;;;;;14.51;100.00;100767.22;10479795;28;20063;-80
2022/05/24 18:23:36;;;;;;;3.75;1.65;;;;;;;14.40;100.00;100760.09;10479171;28;20036;-78
2022/05/24 18:33:56;;;;;;;6.13;1.90;;;;;;;14.56;100.00;100781.09;10468778;28;20052;-80
2022/05/24 18:38:56;;;;;;;3.20;1.63;;;;;;;14.51;100.00;100779.16;10462564;28;20048;-79
2022/05/24 18:43:57;;;;;;;4.15;1.35;;;;;;;14.49;100.00;100780.53;10487324;28;20039;-80
2022/05/24 18:48:57;;;;;;;3.13;1.30;;;;;;;14.44;100.00;100788.88;10476591;28;20033;-80
2022/05/24 18:53:58;;;;;;;4.47;1.77;;;;;;;14.27;100.00;100792.81;10473210;28;20029;-81
2022/05/24 18:58:58;;;;;;;6.65;1.75;;;;;;;14.07;100.00;100798.38;10469215;28;20037;-82
2022/05/24 19:03:59;;;;;;;3.25;2.03;;;;;;;13.90;100.00;100809.75;10471324;28;20119;-79
2022/05/24 19:09:00;;;;;;;4.05;1.92;;;;;;;13.75;100.00;100809.78;10478149;28;20037;-79
2022/05/24 19:14:00;;;;;;;3.45;1.50;;;;;;;13.56;100.00;100821.41;10458064;28;20091;-78
2022/05/24 19:19:01;;;;;;;7.28;3.88;;;;;;;13.42;100.00;100834.94;10461957;28;20071;-80
2022/05/24 19:24:02;;;;;;;6.25;2.25;;;;;;;13.28;100.00;100844.81;10476534;28;20040;-81
2022/05/24 19:29:02;;;;;;;4.55;2.42;;;;;;;13.11;100.00;100854.19;10460436;28;20388;-80
2022/05/24 19:34:04;;;;;;;4.07;2.80;;;;;;;12.87;100.00;100840.00;10459046;28;20508;-80
2022/05/24 19:44:23;;;;;;;5.38;3.40;;;;;;;12.70;100.00;100884.41;10459729;28;20037;-79
2022/05/24 19:49:23;;;;;;;4.03;3.13;;;;;;;12.56;100.00;100883.22;10488189;28;20048;-79
2022/05/24 19:54:24;;;;;;;4.75;3.00;;;;;;;12.46;100.00;100899.72;10499614;28;20044;-79
2022/05/24 19:59:25;;;;;;;7.20;3.65;;;;;;;12.31;100.00;100898.53;10499901;28;20059;-78
2022/05/24 20:04:26;;;;;;;18.90;4.78;;;;;;;12.16;100.00;100898.44;10495778;28;20028;-79
2022/05/24 20:09:26;;;;;;;9.27;3.97;;;;;;;11.96;100.00;100896.31;10496479;28;20128;-79
2022/05/24 20:14:30;;;;;;;9.52;4.07;;;;;;;11.88;100.00;100922.47;10498500;28;20040;-78
2022/05/24 20:19:31;;;;;;;9.93;4.10;;;;;;;11.75;100.00;100928.38;10500122;28;20032;-78
2022/05/24 20:24:33;;;;;;;8.27;4.07;;;;;;;11.64;100.00;100932.16;10481717;28;20037;-79
2022/05/24 20:29:34;;;;;;;8.02;3.63;;;;;;;11.59;100.00;100937.59;10497883;28;20201;-79
2022/05/24 20:34:39;;;;;;;8.75;3.30;;;;;;;11.56;100.00;100938.13;10473546;28;20108;-78
2022/05/24 20:39:39;;;;;;;14.02;3.75;;;;;;;11.48;100.00;100954.03;10475876;28;20409;-81
2022/05/24 20:44:40;;;;;;;12.38;3.90;;;;;;;11.41;100.00;100953.41;10490919;28;20040;-78
2022/05/24 20:49:41;;;;;;;7.18;3.28;;;;;;;11.32;100.00;100957.69;10455252;28;20036;-79
2022/05/24 20:54:41;;;;;;;10.88;3.75;;;;;;;11.25;100.00;100957.06;10439069;28;20033;-78
2022/05/24 20:59:42;;;;;;;14.65;3.88;;;;;;;11.07;100.00;100955.44;10477504;28;20487;-74
2022/05/24 21:04:59;;;;;;;8.02;3.63;;;;;;;11.00;100.00;100961.16;10495037;28;20056;-80
2022/05/24 21:10:00;;;;;;;8.27;3.47;;;;;;;10.87;100.00;100964.25;10497164;28;20070;-79
2022/05/24 21:15:00;;;;;;;8.23;2.88;;;;;;;10.85;100.00;100969.19;10461859;28;20037;-78
2022/05/24 21:20:01;;;;;;;7.75;3.33;;;;;;;10.79;100.00;100981.22;10494344;28;20048;-78
2022/05/24 21:30:20;;;;;;;8.10;3.78;;;;;;;10.46;100.00;100952.69;10495718;28;20040;-79
2022/05/24 21:35:22;;;;;;;7.68;3.38;;;;;;;10.43;100.00;100970.50;10494094;28;20029;-78
2022/05/24 21:40:22;;;;;;;9.07;3.20;;;;;;;10.38;100.00;100977.88;10487528;28;20040;-77
2022/05/24 21:45:23;;;;;;;7.75;3.42;;;;;;;10.32;100.00;100984.38;10493692;28;20037;-79
2022/05/24 21:50:24;;;;;;;8.93;3.75;;;;;;;10.19;100.00;100994.59;10455401;28;20051;-77
2022/05/24 21:55:25;;;;;;;10.48;3.70;;;;;;;10.09;100.00;100998.00;10491519;28;20089;-77
2022/05/24 22:00:48;;;;;;;11.27;4.28;;;;;;;10.02;100.00;101010.22;10490344;28;20292;-78
2022/05/24 22:05:48;;;;;;;12.85;4.38;;;;;;;9.96;100.00;101022.22;10491412;28;20108;-78
2022/05/24 22:10:49;;;;;;;8.68;3.92;;;;;;;9.86;100.00;101023.69;10478205;28;20109;-77
2022/05/24 22:15:49;;;;;;;9.23;3.55;;;;;;;9.81;100.00;101025.50;10461682;28;20056;-78
2022/05/24 22:20:50;;;;;;;10.85;4.10;;;;;;;9.72;100.00;101036.06;10495464;28;20096;-77
2022/05/24 22:25:51;;;;;;;9.07;4.18;;;;;;;9.61;100.00;101040.53;10494115;28;20028;-78
2022/05/24 22:30:53;;;;;;;8.07;4.22;;;;;;;9.52;100.00;101049.41;10495918;28;20059;-79
2022/05/24 22:35:58;;;;;;;13.82;4.53;;;;;;;9.41;100.00;101051.94;10493972;28;20350;-79
2022/05/24 22:41:05;;;;;;;8.77;4.93;;;;;;;9.26;100.00;101035.09;10461217;28;20057;-78
2022/05/24 22:46:26;;;;;;;8.45;5.35;;;;;;;9.22;100.00;101042.16;10494536;28;20040;-80
2022/05/24 22:51:28;;;;;;;12.35;5.93;;;;;;;9.18;100.00;101049.25;10482181;28;20040;-79
2022/05/24 22:56:28;;;;;;;12.65;7.03;;;;;;;9.09;100.00;101062.47;10485195;28;20028;-78
2022/05/24 23:01:29;;;;;;;12.10;6.40;;;;;;;8.99;100.00;101065.84;10484541;28;20044;-79
2022/05/24 23:06:29;;;;;;;11.00;7.03;;;;;;;8.93;100.00;101068.69;10482899;28;20060;-78
2022/05/24 23:11:30;;;;;;;11.65;7.05;;;;;;;8.86;100.00;101066.91;10460562;28;20053;-79
2022/05/24 23:16:31;;;;;;;10.15;6.63;;;;;;;8.84;100.00;101066.28;10460174;28;20091;-79
2022/05/24 23:21:32;;;;;;;11.73;7.60;;;;;;;8.78;100.00;101066.41;10458492;28;20044;-79
2022/05/24 23:26:33;;;;;;;12.25;7.65;;;;;;;8.71;100.00;101068.47;10458301;28;20116;-78
2022/05/24 23:31:34;;;;;;;15.60;8.30;;;;;;;8.68;100.00;101073.34;10458072;28;20033;-78
2022/05/24 23:36:34;;;;;;;10.75;7.50;;;;;;;8.61;100.00;101071.78;10460909;28;20083;-77
2022/05/24 23:41:35;;;;;;;11.02;8.00;;;;;;;8.56;100.00;101075.25;10457681;28;20095;-77
2022/05/24 23:46:36;;;;;;;9.07;7.50;;;;;;;8.52;100.00;101082.28;10460218;28;20041;-77
2022/05/24 23:51:37;;;;;;;14.07;8.20;;;;;;;8.41;100.00;101074.84;10464888;28;20037;-77
2022/05/24 23:56:37;;;;;;;12.00;7.90;;;;;;;8.38;100.00;101083.50;10482286;28;20043;-77
